Time;durP1;ratioP1;P1;durP2;ratioP2;P2;SDS_P1;SDS_P2;PMS_P1;PMS_P2;Temp;Humidity;BMP_temperature;BMP_pressure;BME280_temperature;BME280_humidity;BME280_pressure;Samples;Min_cycle;Max_cycle;Signal;HPM_P1;HPM_P2
2022/01/01 00:02:05;;;;;;;0.60;0.20;;;12.70;1.00;;;;;;5114975;28;20467;-75
2022/01/01 00:04:53;;;;;;;4.73;2.60;;;12.70;1.00;;;;;;5114552;28;20960;-75
2022/01/01 00:07:22;;;;;;;4.20;2.03;;;12.70;1.00;;;;;;5114087;28;20642;-74
2022/01/01 00:09:50;;;;;;;0.60;0.30;;;12.70;1.00;;;;;;5115071;28;20429;-73
2022/01/01 00:12:18;;;;;;;0.60;0.10;;;12.80;1.00;;;;;;5115698;28;20475;-73
2022/01/01 00:14:46;;;;;;;0.60;0.10;;;12.80;1.00;;;;;;5116980;28;20446;-74
2022/01/01 00:17:14;;;;;;;0.60;0.10;;;13.10;1.00;;;;;;5114753;28;20447;-72
2022/01/01 00:19:42;;;;;;;0.60;0.10;;;12.90;1.00;;;;;;5113537;28;20978;-74
2022/01/01 00:22:10;;;;;;;0.60;0.10;;;12.90;1.00;;;;;;5114301;28;20457;-72
2022/01/01 00:24:39;;;;;;;0.60;0.10;;;12.90;1.00;;;;;;5113702;28;20934;-72
2022/01/01 00:27:07;;;;;;;0.90;0.67;;;13.00;1.00;;;;;;5116884;28;20441;-72
2022/01/01 00:29:34;;;;;;;0.60;0.10;;;12.90;1.00;;;;;;5114408;28;20443;-72
2022/01/01 00:32:03;;;;;;;0.60;0.10;;;13.00;1.00;;;;;;5114486;28;20441;-71
2022/01/01 00:34:35;;;;;;;0.60;0.10;;;13.00;1.00;;;;;;5115150;28;20448;-73
2022/01/01 00:37:05;;;;;;;0.60;0.10;;;13.00;1.00;;;;;;5116276;28;20444;-74
2022/01/01 00:39:32;;;;;;;0.60;0.10;;;13.00;1.00;;;;;;5115736;28;20471;-74
2022/01/01 00:42:02;;;;;;;0.60;0.20;;;13.00;1.00;;;;;;5114214;28;20443;-74
2022/01/01 00:44:32;;;;;;;0.60;0.10;;;13.00;1.00;;;;;;5113834;28;20449;-74
2022/01/01 00:47:00;;;;;;;0.60;0.10;;;13.00;1.00;;;;;;5113699;28;20953;-74
2022/01/01 00:49:28;;;;;;;4.77;2.17;;;13.00;1.00;;;;;;5113950;28;20436;-74
2022/01/01 00:51:56;;;;;;;2.80;1.17;;;12.90;1.00;;;;;;5113567;28;20446;-74
2022/01/01 00:54:24;;;;;;;0.60;0.20;;;13.00;1.00;;;;;;5113458;28;20486;-74
2022/01/01 00:56:53;;;;;;;0.60;0.10;;;12.90;1.00;;;;;;5113781;28;20448;-74
2022/01/01 00:59:22;;;;;;;3.60;2.33;;;13.00;1.00;;;;;;5113485;28;20440;-73
2022/01/01 01:01:50;;;;;;;0.60;0.10;;;12.90;1.00;;;;;;5114355;28;20444;-73
2022/01/01 01:04:18;;;;;;;0.60;0.20;;;12.90;1.00;;;;;;5114011;28;20799;-73
2022/01/01 01:06:46;;;;;;;0.60;0.10;;;12.90;1.00;;;;;;5113877;28;20814;-73
2022/01/01 01:09:14;;;;;;;0.60;0.13;;;13.00;1.00;;;;;;5113235;28;20796;-73
2022/01/01 01:11:45;;;;;;;0.60;0.20;;;13.00;1.00;;;;;;5113381;28;20448;-73
2022/01/01 01:14:20;;;;;;;0.60;0.10;;;13.00;1.00;;;;;;5113100;28;21028;-75
2022/01/01 01:16:51;;;;;;;0.60;0.10;;;13.00;1.00;;;;;;5113149;28;20457;-74
2022/01/01 01:19:19;;;;;;;0.60;0.10;;;13.10;1.00;;;;;;5113158;28;20439;-74
2022/01/01 01:21:48;;;;;;;0.60;0.10;;;13.10;1.00;;;;;;5112988;28;20487;-73
2022/01/01 01:24:18;;;;;;;0.60;0.10;;;13.10;1.00;;;;;;5112900;28;21048;-76
2022/01/01 01:26:49;;;;;;;0.60;0.20;;;13.10;1.00;;;;;;5112812;28;20456;-74
2022/01/01 01:29:18;;;;;;;0.60;0.10;;;13.10;1.00;;;;;;5113427;28;20436;-74
2022/01/01 01:31:46;;;;;;;0.60;0.10;;;13.10;1.00;;;;;;5113972;28;20527;-74
2022/01/01 01:34:15;;;;;;;0.60;0.10;;;13.10;1.00;;;;;;5113941;28;20448;-74
2022/01/01 01:36:43;;;;;;;0.60;0.10;;;13.10;1.00;;;;;;5114237;28;20575;-73
2022/01/01 01:39:11;;;;;;;1.67;0.77;;;13.10;1.00;;;;;;5112920;28;20450;-74
2022/01/01 01:41:42;;;;;;;0.60;0.10;;;13.10;1.00;;;;;;5112874;28;20486;-74
2022/01/01 01:44:26;;;;;;;0.60;0.10;;;13.10;1.00;;;;;;5112672;28;20470;-73
2022/01/01 01:46:56;;;;;;;0.60;0.10;;;13.10;1.00;;;;;;5111329;28;20971;-75
2022/01/01 01:49:25;;;;;;;0.70;0.47;;;13.00;1.00;;;;;;5112029;28;20941;-73
2022/01/01 01:51:54;;;;;;;0.60;0.10;;;13.00;1.00;;;;;;5112372;28;20436;-73
2022/01/01 01:54:22;;;;;;;0.60;0.10;;;13.00;1.00;;;;;;5112430;28;20424;-74
2022/01/01 01:56:52;;;;;;;1.17;1.17;;;13.00;1.00;;;;;;5112588;28;20472;-73
2022/01/01 01:59:20;;;;;;;2.03;0.83;;;12.90;1.00;;;;;;5112724;28;20472;-72
2022/01/01 02:01:48;;;;;;;0.60;0.10;;;12.90;1.00;;;;;;5111676;28;20478;-74
2022/01/01 02:04:16;;;;;;;1.50;1.40;;;12.90;1.00;;;;;;5112353;28;20568;-72
2022/01/01 02:06:46;;;;;;;1.40;0.53;;;12.90;1.00;;;;;;5112734;28;20817;-73
2022/01/01 02:09:14;;;;;;;0.60;0.30;;;12.90;1.00;;;;;;5112706;28;20450;-74
2022/01/01 02:11:42;;;;;;;0.60;0.10;;;12.90;1.00;;;;;;5112398;28;20545;-74
2022/01/01 02:14:16;;;;;;;0.60;0.10;;;12.90;1.00;;;;;;5112002;28;20459;-73
2022/01/01 02:17:08;;;;;;;0.60;0.10;;;12.90;1.00;;;;;;5112458;28;20444;-73
2022/01/01 02:19:51;;;;;;;0.60;0.10;;;12.90;1.00;;;;;;5112461;28;20444;-74
2022/01/01 02:22:20;;;;;;;0.60;0.30;;;13.00;1.00;;;;;;5112580;28;20483;-72
2022/01/01 02:24:48;;;;;;;3.67;0.67;;;13.00;1.00;;;;;;5111939;28;20442;-73
2022/01/01 02:27:17;;;;;;;0.60;0.30;;;13.00;1.00;;;;;;5112335;28;20799;-73
2022/01/01 02:29:45;;;;;;;0.60;0.40;;;13.00;1.00;;;;;;5112245;28;20463;-73
2022/01/01 02:32:15;;;;;;;0.60;0.10;;;13.00;1.00;;;;;;5111818;28;20524;-73
2022/01/01 02:34:44;;;;;;;0.60;0.10;;;13.00;1.00;;;;;;5112121;28;20439;-72
2022/01/01 02:37:11;;;;;;;0.60;0.10;;;13.10;1.00;;;;;;5112301;28;20439;-74
2022/01/01 02:39:41;;;;;;;0.60;0.10;;;13.10;1.00;;;;;;5112298;28;20809;-72
2022/01/01 02:42:10;;;;;;;1.87;1.50;;;13.10;1.00;;;;;;5115281;28;20560;-72
2022/01/01 02:44:39;;;;;;;0.60;0.20;;;13.10;1.00;;;;;;5116152;28;20460;-74
2022/01/01 02:47:07;;;;;;;1.57;1.03;;;13.10;1.00;;;;;;5115078;27;20472;-74
2022/01/01 02:49:35;;;;;;;0.60;0.30;;;13.10;1.00;;;;;;5115520;28;20441;-73
2022/01/01 02:52:03;;;;;;;0.60;0.10;;;13.00;1.00;;;;;;5115755;28;20531;-74
2022/01/01 02:54:31;;;;;;;0.60;0.10;;;13.00;1.00;;;;;;5115734;28;20444;-73
2022/01/01 02:57:00;;;;;;;0.60;0.10;;;13.00;1.00;;;;;;5115985;28;20447;-74
2022/01/01 02:59:28;;;;;;;0.60;0.10;;;13.00;1.00;;;;;;5115775;28;20445;-74
2022/01/01 03:01:56;;;;;;;0.60;0.10;;;13.00;1.00;;;;;;5115642;28;20549;-72
2022/01/01 03:04:24;;;;;;;0.60;0.10;;;13.00;1.00;;;;;;5116371;28;20439;-74
2022/01/01 03:06:55;;;;;;;0.60;0.10;;;13.00;1.00;;;;;;5116324;28;20536;-73
2022/01/01 03:09:24;;;;;;;0.60;0.10;;;12.90;1.00;;;;;;5115975;28;20829;-72
2022/01/01 03:11:52;;;;;;;1.40;1.30;;;12.80;1.00;;;;;;5116244;28;20436;-72
2022/01/01 03:14:21;;;;;;;2.47;2.20;;;12.80;1.00;;;;;;5115890;28;20457;-73
2022/01/01 03:16:51;;;;;;;0.60;0.10;;;12.70;1.00;;;;;;5116549;28;20850;-73
2022/01/01 03:19:19;;;;;;;0.60;0.10;;;12.60;1.00;;;;;;5116950;28;20436;-73
2022/01/01 03:21:46;;;;;;;0.60;0.10;;;12.70;1.00;;;;;;5115914;28;20486;-72
2022/01/01 03:24:14;;;;;;;0.60;0.40;;;12.70;1.00;;;;;;5115947;28;20445;-71
2022/01/01 03:26:42;;;;;;;0.60;0.10;;;12.70;1.00;;;;;;5116599;28;20462;-73
2022/01/01 03:29:10;;;;;;;5.30;3.60;;;12.70;1.00;;;;;;5115820;28;20431;-74
2022/01/01 03:31:39;;;;;;;0.60;0.10;;;12.70;1.00;;;;;;5115382;28;20942;-72
2022/01/01 03:34:07;;;;;;;0.60;0.20;;;12.70;1.00;;;;;;5115314;28;20464;-72
2022/01/01 03:36:35;;;;;;;2.30;1.70;;;12.70;1.00;;;;;;5114892;28;20446;-75
2022/01/01 03:39:04;;;;;;;1.03;0.77;;;12.60;1.00;;;;;;5110076;28;20849;-72
2022/01/01 03:41:32;;;;;;;0.60;0.10;;;12.50;1.00;;;;;;5113547;28;20471;-72
2022/01/01 03:43:59;;;;;;;6.70;6.40;;;12.50;1.00;;;;;;5114449;28;20474;-73
2022/01/01 03:46:27;;;;;;;0.60;0.20;;;12.50;1.00;;;;;;5114958;28;20441;-73
2022/01/01 03:48:56;;;;;;;0.60;0.10;;;12.50;1.00;;;;;;5114296;28;20913;-74
2022/01/01 03:51:24;;;;;;;4.20;1.53;;;12.50;1.00;;;;;;5114560;28;20436;-72
2022/01/01 03:53:52;;;;;;;3.57;0.87;;;12.50;1.00;;;;;;5113777;28;20520;-72
2022/01/01 03:56:20;;;;;;;0.60;0.23;;;12.50;1.00;;;;;;5114681;28;20446;-72
2022/01/01 03:58:48;;;;;;;3.03;0.87;;;12.40;1.00;;;;;;5113770;27;20905;-71
2022/01/01 04:01:16;;;;;;;0.70;0.40;;;12.50;1.00;;;;;;5120310;27;20937;-73
2022/01/01 04:03:44;;;;;;;3.03;2.83;;;12.50;1.00;;;;;;5134952;27;20459;-73
2022/01/01 04:06:13;;;;;;;13.27;2.57;;;12.50;1.00;;;;;;5111633;27;20464;-74
2022/01/01 04:08:41;;;;;;;0.60;0.10;;;12.40;1.00;;;;;;5113624;28;20444;-73
2022/01/01 04:11:09;;;;;;;0.60;0.20;;;12.40;1.00;;;;;;5113255;28;20831;-73
2022/01/01 04:13:37;;;;;;;0.60;0.10;;;12.50;1.00;;;;;;5131075;22;20492;-76
2022/01/01 04:16:06;;;;;;;0.60;0.10;;;12.50;1.00;;;;;;5106986;28;20448;-77
2022/01/01 04:18:38;;;;;;;2.60;1.80;;;12.50;1.00;;;;;;5108073;28;20445;-76
2022/01/01 04:21:08;;;;;;;3.33;3.00;;;12.50;1.00;;;;;;5099518;28;20537;-76
2022/01/01 04:23:38;;;;;;;0.60;0.40;;;12.50;1.00;;;;;;5106580;28;20483;-76
2022/01/01 04:26:07;;;;;;;1.20;0.63;;;12.50;1.00;;;;;;5103360;28;20445;-76
2022/01/01 04:28:35;;;;;;;2.10;2.00;;;12.50;1.00;;;;;;5102676;28;20441;-76
2022/01/01 04:31:03;;;;;;;0.60;0.10;;;12.40;1.00;;;;;;5103770;28;20973;-75
2022/01/01 04:33:31;;;;;;;0.60;0.10;;;12.40;1.00;;;;;;5101634;28;20550;-77
2022/01/01 04:36:00;;;;;;;1.10;0.40;;;;;;;;;;5092829;28;20442;-76
2022/01/01 04:38:36;;;;;;;1.00;0.53;;;12.40;1.00;;;;;;5080820;28;20446;-76
2022/01/01 04:41:07;;;;;;;0.60;0.30;;;12.40;1.00;;;;;;5080463;28;20439;-77
2022/01/01 04:43:36;;;;;;;0.60;0.20;;;12.40;1.00;;;;;;5075824;28;20979;-77
2022/01/01 04:46:03;;;;;;;1.70;1.60;;;12.40;1.00;;;;;;5063344;28;20458;-76
2022/01/01 04:48:32;;;;;;;0.60;0.20;;;12.30;1.00;;;;;;5054840;28;20806;-75
2022/01/01 04:50:59;;;;;;;0.60;0.40;;;12.40;1.00;;;;;;5054015;28;20427;-76
2022/01/01 04:53:27;;;;;;;0.90;0.60;;;12.40;1.00;;;;;;5068378;28;20462;-76
2022/01/01 04:55:55;;;;;;;0.60;0.10;;;12.40;1.00;;;;;;5073390;28;20441;-76
2022/01/01 04:58:24;;;;;;;1.57;0.70;;;12.40;1.00;;;;;;5073814;28;20956;-77
2022/01/01 05:00:53;;;;;;;0.97;0.30;;;12.50;1.00;;;;;;5073625;28;20493;-75
2022/01/01 05:03:21;;;;;;;0.60;0.10;;;12.50;1.00;;;;;;5074153;28;20917;-74
2022/01/01 05:05:49;;;;;;;2.50;1.47;;;12.50;1.00;;;;;;5073047;28;20513;-77
2022/01/01 05:08:17;;;;;;;0.60;0.20;;;12.50;1.00;;;;;;5079502;28;20954;-76
2022/01/01 05:10:45;;;;;;;1.80;0.97;;;12.40;1.00;;;;;;5093409;28;20511;-76
2022/01/01 05:13:17;;;;;;;0.60;0.20;;;12.30;1.00;;;;;;5093739;28;20507;-75
2022/01/01 05:15:46;;;;;;;0.60;0.20;;;12.30;1.00;;;;;;5094044;28;20445;-75
2022/01/01 05:18:16;;;;;;;1.27;0.80;;;12.30;1.00;;;;;;5095977;28;20449;-75
2022/01/01 05:20:43;;;;;;;0.70;0.53;;;12.30;1.00;;;;;;5094313;28;20491;-78
2022/01/01 05:23:11;;;;;;;0.60;0.10;;;12.30;1.00;;;;;;5093731;28;21087;-76
2022/01/01 05:25:39;;;;;;;0.80;0.67;;;12.30;1.00;;;;;;5093039;28;20513;-76
2022/01/01 05:28:13;;;;;;;0.80;0.70;;;12.30;1.00;;;;;;5094035;28;20760;-76
2022/01/01 05:30:41;;;;;;;2.43;1.13;;;12.30;1.00;;;;;;5094224;28;20433;-77
2022/01/01 05:33:11;;;;;;;1.77;0.97;;;12.30;1.00;;;;;;5095359;28;20476;-76
2022/01/01 05:35:38;;;;;;;1.03;0.93;;;12.30;1.00;;;;;;5095314;28;20452;-77
2022/01/01 05:38:06;;;;;;;0.70;0.50;;;12.30;1.00;;;;;;5096040;28;20417;-75
2022/01/01 05:40:52;;;;;;;0.60;0.10;;;12.30;1.00;;;;;;5094524;28;20835;-76
2022/01/01 05:43:20;;;;;;;1.90;1.80;;;12.30;1.00;;;;;;5094098;28;20484;-76
2022/01/01 05:45:48;;;;;;;0.60;0.30;;;12.30;1.00;;;;;;5095354;28;20524;-76
2022/01/01 05:48:18;;;;;;;0.60;0.20;;;12.40;1.00;;;;;;5090463;28;20450;-77
2022/01/01 05:50:46;;;;;;;0.90;0.60;;;12.30;1.00;;;;;;5074217;28;20868;-76
2022/01/01 05:53:14;;;;;;;0.60;0.10;;;;;;;;;;5075430;28;20446;-77
2022/01/01 05:55:42;;;;;;;0.60;0.10;;;12.40;1.00;;;;;;5079042;28;20472;-76
2022/01/01 05:58:10;;;;;;;0.60;0.10;;;12.40;1.00;;;;;;5073062;28;20450;-76
2022/01/01 06:00:38;;;;;;;0.60;0.10;;;12.50;1.00;;;;;;5073361;28;20446;-76
2022/01/01 06:03:06;;;;;;;1.33;0.77;;;12.50;1.00;;;;;;5074800;28;20534;-77
2022/01/01 06:05:36;;;;;;;4.47;1.27;;;12.50;1.00;;;;;;5077260;28;20492;-76
2022/01/01 06:08:04;;;;;;;0.60;0.17;;;12.50;1.00;;;;;;5077246;28;20447;-76
2022/01/01 06:10:32;;;;;;;2.80;2.13;;;12.50;1.00;;;;;;5074606;28;20465;-77
2022/01/01 06:13:00;;;;;;;0.60;0.10;;;12.40;1.00;;;;;;5072684;28;20536;-76
2022/01/01 06:15:28;;;;;;;0.60;0.23;;;12.40;1.00;;;;;;5073078;28;20437;-77
2022/01/01 06:17:56;;;;;;;0.60;0.10;;;12.40;1.00;;;;;;5088248;28;20552;-75
2022/01/01 06:20:24;;;;;;;0.60;0.10;;;12.50;1.00;;;;;;5096857;28;20439;-76
2022/01/01 06:23:05;;;;;;;0.60;0.10;;;12.60;1.00;;;;;;5097145;28;20575;-75
2022/01/01 06:25:33;;;;;;;0.60;0.10;;;12.60;1.00;;;;;;5096902;28;20528;-78
2022/01/01 06:28:02;;;;;;;0.60;0.10;;;12.60;1.00;;;;;;5098260;28;20448;-76
2022/01/01 06:30:33;;;;;;;0.60;0.10;;;12.70;1.00;;;;;;5098453;28;20463;-77
2022/01/01 06:33:02;;;;;;;0.60;0.10;;;12.70;1.00;;;;;;5080073;28;20464;-76
2022/01/01 06:35:30;;;;;;;0.60;0.10;;;12.70;1.00;;;;;;5078319;28;20448;-77
2022/01/01 06:37:58;;;;;;;0.60;0.10;;;12.70;1.00;;;;;;5078339;28;20432;-76
2022/01/01 06:40:27;;;;;;;0.60;0.10;;;12.70;1.00;;;;;;5078924;28;20857;-76
2022/01/01 06:42:55;;;;;;;0.60;0.10;;;12.80;1.00;;;;;;5079237;28;20971;-77
2022/01/01 06:45:25;;;;;;;0.60;0.10;;;12.80;1.00;;;;;;5079097;28;20506;-77
2022/01/01 06:47:53;;;;;;;0.60;0.20;;;12.70;1.00;;;;;;5078799;28;20507;-76
2022/01/01 06:50:21;;;;;;;0.60;0.10;;;12.80;1.00;;;;;;5078174;28;20441;-76
2022/01/01 06:52:49;;;;;;;0.60;0.10;;;12.70;1.00;;;;;;5078456;28;20469;-77
2022/01/01 06:55:17;;;;;;;0.60;0.10;;;12.80;1.00;;;;;;5078154;28;20974;-76
2022/01/01 06:57:47;;;;;;;0.60;0.10;;;;;;;;;;5086412;28;20445;-77
2022/01/01 07:00:16;;;;;;;0.60;0.20;;;12.70;1.00;;;;;;5083755;28;20471;-76
2022/01/01 07:02:45;;;;;;;0.60;0.10;;;12.70;1.00;;;;;;5098371;28;20469;-76
2022/01/01 07:05:14;;;;;;;2.17;2.07;;;12.70;1.00;;;;;;5101717;28;20526;-76
2022/01/01 07:07:43;;;;;;;0.60;0.20;;;12.70;1.00;;;;;;5116019;28;20441;-76
2022/01/01 07:10:13;;;;;;;0.60;0.10;;;12.70;1.00;;;;;;5116025;28;20424;-78
2022/01/01 07:12:41;;;;;;;0.60;0.10;;;12.60;1.00;;;;;;5105647;28;20892;-76
2022/01/01 07:15:12;;;;;;;0.60;0.10;;;12.60;1.00;;;;;;5096845;28;20449;-76
2022/01/01 07:17:40;;;;;;;0.60;0.10;;;12.60;1.00;;;;;;5100706;28;20439;-76
2022/01/01 07:20:09;;;;;;;0.60;0.10;;;12.60;1.00;;;;;;5098031;28;20820;-78
2022/01/01 07:22:40;;;;;;;0.60;0.10;;;12.60;1.00;;;;;;5091831;28;20445;-76
2022/01/01 07:25:10;;;;;;;0.60;0.20;;;12.60;1.00;;;;;;5076134;28;20499;-76
2022/01/01 07:27:38;;;;;;;0.60;0.10;;;12.60;1.00;;;;;;5076530;28;20453;-77
2022/01/01 07:30:08;;;;;;;0.60;0.10;;;12.60;1.00;;;;;;5077938;28;20453;-77
2022/01/01 07:32:45;;;;;;;0.60;0.10;;;12.60;1.00;;;;;;5097540;28;20990;-76
2022/01/01 07:35:14;;;;;;;0.60;0.30;;;12.70;1.00;;;;;;5097459;28;20441;-75
2022/01/01 07:37:42;;;;;;;0.60;0.10;;;12.70;1.00;;;;;;5089776;28;20450;-76
2022/01/01 07:40:13;;;;;;;0.60;0.10;;;12.70;1.00;;;;;;5096968;28;20447;-75
2022/01/01 07:42:41;;;;;;;0.60;0.10;;;12.70;1.00;;;;;;5096967;28;20504;-76
2022/01/01 07:45:11;;;;;;;0.60;0.10;;;12.70;1.00;;;;;;5097480;28;20485;-77
2022/01/01 07:47:39;;;;;;;0.60;0.10;;;12.70;1.00;;;;;;5098148;28;20444;-78
2022/01/01 07:50:09;;;;;;;0.60;0.10;;;12.70;1.00;;;;;;5103781;28;20535;-76
2022/01/01 07:52:38;;;;;;;0.60;0.10;;;12.70;1.00;;;;;;5101621;28;20421;-76
2022/01/01 07:55:07;;;;;;;0.60;0.10;;;12.70;1.00;;;;;;5097066;28;20528;-77
2022/01/01 07:57:35;;;;;;;0.60;0.10;;;12.70;1.00;;;;;;5096919;28;20452;-75
2022/01/01 08:00:07;;;;;;;0.60;0.10;;;12.70;1.00;;;;;;5097830;28;20444;-76
2022/01/01 08:02:39;;;;;;;0.60;0.10;;;12.60;1.00;;;;;;5097256;28;20972;-76
2022/01/01 08:05:10;;;;;;;0.60;0.30;;;12.60;1.00;;;;;;5096898;28;20818;-76
2022/01/01 08:07:39;;;;;;;0.60;0.10;;;12.70;1.00;;;;;;5098684;28;20950;-76
2022/01/01 08:10:27;;;;;;;0.60;0.10;;;12.60;1.00;;;;;;5079033;28;20463;-76
2022/01/01 08:12:55;;;;;;;0.60;0.10;;;12.60;1.00;;;;;;5075913;28;20568;-75
2022/01/01 08:15:23;;;;;;;0.60;0.10;;;;;;;;;;5075148;28;20426;-76
2022/01/01 08:17:51;;;;;;;2.33;2.17;;;12.60;1.00;;;;;;5074640;28;20445;-76
2022/01/01 08:20:20;;;;;;;1.33;1.23;;;12.60;1.00;;;;;;5076217;28;20434;-76
2022/01/01 08:22:48;;;;;;;0.60;0.10;;;13.60;1.00;;;;;;5075171;28;20541;-74
2022/01/01 08:25:17;;;;;;;0.60;0.10;;;12.50;1.00;;;;;;5074438;28;20485;-77
2022/01/01 08:27:45;;;;;;;0.60;0.10;;;12.50;1.00;;;;;;5075519;28;20974;-77
2022/01/01 08:30:14;;;;;;;0.60;0.10;;;12.50;1.00;;;;;;5073828;28;20454;-76
2022/01/01 08:32:43;;;;;;;0.60;0.10;;;12.50;1.00;;;;;;5074069;28;20885;-75
2022/01/01 08:35:15;;;;;;;0.60;0.10;;;12.50;1.00;;;;;;5073979;28;20449;-75
2022/01/01 08:37:44;;;;;;;0.80;0.63;;;12.60;1.00;;;;;;5073708;28;20460;-75
2022/01/01 08:40:14;;;;;;;0.60;0.10;;;12.60;1.00;;;;;;5073978;28;20455;-76
2022/01/01 08:42:42;;;;;;;0.60;0.10;;;12.60;1.00;;;;;;5074565;28;20468;-77
2022/01/01 08:45:10;;;;;;;0.60;0.20;;;12.50;1.00;;;;;;5073226;28;21097;-77
2022/01/01 08:47:38;;;;;;;0.60;0.10;;;12.50;1.00;;;;;;5073330;28;20817;-75
2022/01/01 08:50:08;;;;;;;0.60;0.10;;;12.50;1.00;;;;;;5073398;28;20451;-77
2022/01/01 08:52:36;;;;;;;0.60;0.10;;;12.60;1.00;;;;;;5073533;28;20971;-76
2022/01/01 08:55:06;;;;;;;0.60;0.10;;;12.60;1.00;;;;;;5073416;28;20446;-76
2022/01/01 08:57:34;;;;;;;1.13;1.13;;;12.70;1.00;;;;;;5073771;28;20800;-76
2022/01/01 09:00:06;;;;;;;0.60;0.10;;;12.70;1.00;;;;;;5080019;28;20811;-76
2022/01/01 09:02:34;;;;;;;0.60;0.10;;;12.70;1.00;;;;;;5094584;28;20429;-77
2022/01/01 09:05:03;;;;;;;0.60;0.10;;;12.70;1.00;;;;;;5096117;28;20488;-76
2022/01/01 09:07:31;;;;;;;0.60;0.20;;;12.70;1.00;;;;;;5096688;28;20448;-77
2022/01/01 09:10:00;;;;;;;0.60;0.10;;;12.70;1.00;;;;;;5075008;28;20485;-77
2022/01/01 09:12:30;;;;;;;0.60;0.10;;;12.70;1.00;;;;;;5078144;28;20453;-77
2022/01/01 09:14:58;;;;;;;0.60;0.10;;;12.70;1.00;;;;;;5073658;28;20952;-76
2022/01/01 09:17:26;;;;;;;1.00;0.50;;;13.30;1.00;;;;;;5087032;28;20445;-76
2022/01/01 09:19:55;;;;;;;0.60;0.10;;;12.70;1.00;;;;;;5094092;28;20430;-76
2022/01/01 09:22:26;;;;;;;0.60;0.10;;;;;;;;;;5093927;28;20776;-76
2022/01/01 09:24:54;;;;;;;0.60;0.10;;;12.70;1.00;;;;;;5093446;28;20720;-76
2022/01/01 09:27:22;;;;;;;0.60;0.10;;;12.70;1.00;;;;;;5094068;28;20450;-76
2022/01/01 09:29:51;;;;;;;0.60;0.10;;;12.80;1.00;;;;;;5092886;28;20436;-77
2022/01/01 09:32:20;;;;;;;1.03;0.77;;;12.80;1.00;;;;;;5093571;28;20483;-77
2022/01/01 09:34:48;;;;;;;0.60;0.10;;;12.70;1.00;;;;;;5078959;28;20446;-75
2022/01/01 09:37:16;;;;;;;0.97;0.77;;;12.80;1.00;;;;;;5073181;28;20462;-74
2022/01/01 09:39:43;;;;;;;0.60;0.10;;;12.80;1.00;;;;;;5074206;28;20460;-78
2022/01/01 09:42:12;;;;;;;0.60;0.10;;;12.80;1.00;;;;;;5073628;28;20458;-76
2022/01/01 09:44:41;;;;;;;0.60;0.10;;;12.80;1.00;;;;;;5073728;28;20483;-77
2022/01/01 09:47:11;;;;;;;0.60;0.10;;;12.80;1.00;;;;;;5073243;28;20430;-75
2022/01/01 09:49:40;;;;;;;0.60;0.10;;;12.80;1.00;;;;;;5072711;28;20540;-76
2022/01/01 09:52:09;;;;;;;1.00;0.20;;;12.80;1.00;;;;;;5092467;28;20485;-74
2022/01/01 09:54:43;;;;;;;5.93;2.67;;;12.80;1.00;;;;;;5093585;28;20457;-75
2022/01/01 09:57:11;;;;;;;0.60;0.10;;;12.70;1.00;;;;;;5093495;28;20627;-76
2022/01/01 09:59:39;;;;;;;0.60;0.10;;;13.90;1.00;;;;;;5093998;28;20448;-76
2022/01/01 10:02:07;;;;;;;1.30;1.20;;;12.60;1.00;;;;;;5093537;28;20520;-75
2022/01/01 10:04:44;;;;;;;0.60;0.10;;;12.60;1.00;;;;;;5093183;28;20464;-77
2022/01/01 10:07:13;;;;;;;0.60;0.10;;;12.50;1.00;;;;;;5086101;28;20473;-78
2022/01/01 10:09:42;;;;;;;0.60;0.10;;;12.40;1.00;;;;;;5075574;28;20933;-76
2022/01/01 10:12:15;;;;;;;0.73;0.43;;;12.50;1.00;;;;;;5078234;28;20484;-76
2022/01/01 10:14:45;;;;;;;0.60;0.10;;;12.50;1.00;;;;;;5089295;22;20494;-73
2022/01/01 10:17:17;;;;;;;0.70;0.50;;;12.50;1.00;;;;;;5071770;28;20954;-73
2022/01/01 10:19:48;;;;;;;0.70;0.30;;;12.60;1.00;;;;;;5062457;28;20472;-75
2022/01/01 10:22:18;;;;;;;0.60;0.10;;;12.60;1.00;;;;;;5055104;28;20450;-75
2022/01/01 10:27:45;;;;;;;0.60;0.10;;;12.60;1.00;;;;;;5073787;28;20491;-74
2022/01/01 10:30:21;;;;;;;0.60;0.10;;;12.60;1.00;;;;;;5073555;28;20449;-72
2022/01/01 10:33:07;;;;;;;0.60;0.10;;;12.70;1.00;;;;;;5073559;28;20934;-73
2022/01/01 10:35:39;;;;;;;0.60;0.20;;;12.70;1.00;;;;;;5073319;28;20516;-75
2022/01/01 10:38:11;;;;;;;0.60;0.10;;;12.80;1.00;;;;;;5072958;28;20933;-74
2022/01/01 10:40:40;;;;;;;0.60;0.10;;;12.80;1.00;;;;;;5073926;28;20442;-74
2022/01/01 10:43:08;;;;;;;0.70;0.20;;;12.80;1.00;;;;;;5074827;28;20606;-73
2022/01/01 10:45:37;;;;;;;0.60;0.10;;;12.90;1.00;;;;;;5072843;28;20477;-77
2022/01/01 10:48:16;;;;;;;0.60;0.10;;;12.90;1.00;;;;;;5073458;28;20441;-74
2022/01/01 10:50:46;;;;;;;0.60;0.10;;;12.90;1.00;;;;;;5071837;28;20500;-76
2022/01/01 10:53:16;;;;;;;0.60;0.10;;;13.00;1.00;;;;;;5071435;28;20465;-74
2022/01/01 10:55:45;;;;;;;0.60;0.10;;;13.00;1.00;;;;;;5071310;28;20453;-74
2022/01/01 10:58:22;;;;;;;0.60;0.10;;;13.00;1.00;;;;;;5071206;28;20822;-74
2022/01/01 11:00:51;;;;;;;0.60;0.10;;;13.10;1.00;;;;;;5071269;28;20524;-75
2022/01/01 11:03:20;;;;;;;0.60;0.10;;;13.10;1.00;;;;;;5072135;28;20999;-75
2022/01/01 11:05:51;;;;;;;0.60;0.10;;;13.10;1.00;;;;;;5075098;28;20510;-75
2022/01/01 11:08:19;;;;;;;0.60;0.10;;;13.10;1.00;;;;;;5075290;28;20791;-76
2022/01/01 11:10:48;;;;;;;0.60;0.10;;;13.10;1.00;;;;;;5075915;28;20468;-74
2022/01/01 11:13:15;;;;;;;0.60;0.10;;;13.20;1.00;;;;;;5076978;28;20475;-74
2022/01/01 11:15:44;;;;;;;0.60;0.10;;;13.20;1.00;;;;;;5078995;28;20434;-75
2022/01/01 11:18:13;;;;;;;0.60;0.10;;;13.20;1.00;;;;;;5078480;28;20538;-75
2022/01/01 11:20:42;;;;;;;0.60;0.10;;;13.30;1.00;;;;;;5079372;28;20976;-75
2022/01/01 11:23:13;;;;;;;0.60;0.10;;;13.30;1.00;;;;;;5079936;28;20470;-75
2022/01/01 11:25:42;;;;;;;0.60;0.10;;;13.30;1.00;;;;;;5079296;28;20540;-74
2022/01/01 11:28:12;;;;;;;0.60;0.10;;;13.30;1.00;;;;;;5079697;28;20446;-77
2022/01/01 11:30:45;;;;;;;0.60;0.27;;;13.30;1.00;;;;;;5079420;28;20817;-76
2022/01/01 11:33:17;;;;;;;0.60;0.10;;;13.30;1.00;;;;;;5076427;28;20912;-73
2022/01/01 11:35:52;;;;;;;0.60;0.10;;;13.30;1.00;;;;;;5076974;28;20430;-75
2022/01/01 11:38:21;;;;;;;0.70;0.50;;;13.30;1.00;;;;;;5075455;28;20810;-75
2022/01/01 11:40:57;;;;;;;0.60;0.10;;;13.30;1.00;;;;;;5075016;28;20544;-75
2022/01/01 11:43:40;;;;;;;4.53;1.73;;;13.40;1.00;;;;;;5075674;28;20472;-73
2022/01/01 11:46:11;;;;;;;0.70;0.47;;;13.40;1.00;;;;;;5075691;28;20481;-78
2022/01/01 11:48:45;;;;;;;0.60;0.10;;;13.20;1.00;;;;;;5075489;28;20522;-75
2022/01/01 11:51:26;;;;;;;0.60;0.20;;;13.20;1.00;;;;;;5074509;28;20454;-75
2022/01/01 11:54:10;;;;;;;0.60;0.10;;;13.20;1.00;;;;;;5076202;28;20458;-75
2022/01/01 11:56:59;;;;;;;0.60;0.10;;;13.20;1.00;;;;;;5075064;28;20472;-77
2022/01/01 11:59:29;;;;;;;0.60;0.10;;;13.30;1.00;;;;;;5074559;28;20491;-74
2022/01/01 12:01:58;;;;;;;0.60;0.10;;;13.30;1.00;;;;;;5073624;28;20446;-76
2022/01/01 12:04:32;;;;;;;0.60;0.10;;;13.40;1.00;;;;;;5073971;28;20549;-74
2022/01/01 12:07:02;;;;;;;0.60;0.10;;;13.50;1.00;;;;;;5074384;28;20845;-75
2022/01/01 12:09:48;;;;;;;0.60;0.10;;;13.50;1.00;;;;;;5074013;28;20883;-75
2022/01/01 12:12:17;;;;;;;0.60;0.10;;;13.50;1.00;;;;;;5074081;28;20932;-73
2022/01/01 12:14:46;;;;;;;0.60;0.10;;;13.60;1.00;;;;;;5073443;28;20504;-73
2022/01/01 12:17:17;;;;;;;0.60;0.10;;;13.60;1.00;;;;;;5074449;28;20513;-74
2022/01/01 12:19:45;;;;;;;0.60;0.10;;;13.60;1.00;;;;;;5073947;28;21029;-75
2022/01/01 12:22:13;;;;;;;2.20;2.10;;;13.60;1.00;;;;;;5073466;28;20437;-75
2022/01/01 12:24:42;;;;;;;0.60;0.10;;;13.70;1.00;;;;;;5073504;28;20457;-74
2022/01/01 12:27:13;;;;;;;0.60;0.10;;;13.70;1.00;;;;;;5074213;28;20492;-73
2022/01/01 12:29:42;;;;;;;0.60;0.10;;;13.80;1.00;;;;;;5073548;28;20454;-74
2022/01/01 12:32:10;;;;;;;0.60;0.10;;;13.70;1.00;;;;;;5069572;28;20465;-74
2022/01/01 12:34:38;;;;;;;0.60;0.10;;;13.70;1.00;;;;;;5073856;28;20955;-74
2022/01/01 12:37:13;;;;;;;0.60;0.17;;;13.70;1.00;;;;;;5054069;28;20435;-76
2022/01/01 12:40:02;;;;;;;0.60;0.10;;;13.70;1.00;;;;;;5053982;28;20438;-74
2022/01/01 12:42:31;;;;;;;0.60;0.10;;;13.70;1.00;;;;;;5054159;28;20451;-76
2022/01/01 12:45:01;;;;;;;0.60;0.10;;;13.70;1.00;;;;;;5069226;28;20561;-74
2022/01/01 12:47:30;;;;;;;0.60;0.10;;;13.70;1.00;;;;;;5073514;28;20478;-75
2022/01/01 12:49:59;;;;;;;0.60;0.10;;;13.70;1.00;;;;;;5073429;28;20464;-75
2022/01/01 12:52:28;;;;;;;0.60;0.10;;;13.60;1.00;;;;;;5073815;28;20443;-74
2022/01/01 12:54:58;;;;;;;1.80;0.63;;;13.60;1.00;;;;;;5073146;28;20458;-75
2022/01/01 12:57:33;;;;;;;0.60;0.20;;;13.60;1.00;;;;;;5072930;28;20453;-74
2022/01/01 13:00:21;;;;;;;0.60;0.10;;;13.60;1.00;;;;;;5074290;28;20819;-72
2022/01/01 13:02:57;;;;;;;0.60;0.10;;;13.60;1.00;;;;;;5073659;28;20445;-77
2022/01/01 13:05:26;;;;;;;0.60;0.10;;;13.60;1.00;;;;;;5073582;28;20455;-73
2022/01/01 13:07:54;;;;;;;0.60;0.10;;;13.70;1.00;;;;;;5072807;28;20486;-72
2022/01/01 13:10:24;;;;;;;0.60;0.10;;;13.70;1.00;;;;;;5073341;28;20457;-74
2022/01/01 13:12:54;;;;;;;0.60;0.10;;;13.80;1.00;;;;;;5073044;28;20528;-73
2022/01/01 13:15:23;;;;;;;0.60;0.10;;;13.80;1.00;;;;;;5073163;28;20593;-73